sensor_id;sensor_type;location;lat;lon;timestamp;temperature;humidity
21944;DHT22;11136;48.778;9.126;2023-05-06T00:02:08;16.90;99.90
21944;DHT22;11136;48.778;9.126;2023-05-06T00:04:33;17.10;99.90
21944;DHT22;11136;48.778;9.126;2023-05-06T00:06:59;17.10;99.90
21944;DHT22;11136;48.778;9.126;2023-05-06T00:09:25;17.10;99.90
21944;DHT22;11136;48.778;9.126;2023-05-06T00:11:50;17.10;99.90
21944;DHT22;11136;48.778;9.126;2023-05-06T00:14:16;17.10;99.90
21944;DHT22;11136;48.778;9.126;2023-05-06T00:16:42;17.10;99.90
21944;DHT22;11136;48.778;9.126;2023-05-06T00:19:07;17.00;99.90
21944;DHT22;11136;48.778;9.126;2023-05-06T00:21:33;17.10;99.90
21944;DHT22;11136;48.778;9.126;2023-05-06T00:23:58;17.00;99.90
21944;DHT22;11136;48.778;9.126;2023-05-06T00:26:24;17.00;99.90
21944;DHT22;11136;48.778;9.126;2023-05-06T00:28:50;17.00;99.90
21944;DHT22;11136;48.778;9.126;2023-05-06T00:31:15;17.00;99.90
21944;DHT22;11136;48.778;9.126;2023-05-06T00:33:41;17.00;99.90
21944;DHT22;11136;48.778;9.126;2023-05-06T00:36:07;17.00;99.90
21944;DHT22;11136;48.778;9.126;2023-05-06T00:38:32;16.90;99.90
21944;DHT22;11136;48.778;9.126;2023-05-06T00:40:58;16.90;99.90
21944;DHT22;11136;48.778;9.126;2023-05-06T00:43:23;16.90;99.90
21944;DHT22;11136;48.778;9.126;2023-05-06T00:45:50;16.90;99.90
21944;DHT22;11136;48.778;9.126;2023-05-06T00:48:15;16.90;99.90
21944;DHT22;11136;48.778;9.126;2023-05-06T00:50:42;16.80;99.90
21944;DHT22;11136;48.778;9.126;2023-05-06T00:53:09;16.80;99.90
21944;DHT22;11136;48.778;9.126;2023-05-06T00:55:37;16.80;99.90
21944;DHT22;11136;48.778;9.126;2023-05-06T00:58:04;16.80;99.90
21944;DHT22;11136;48.778;9.126;2023-05-06T01:00:30;16.80;99.90
21944;DHT22;11136;48.778;9.126;2023-05-06T01:02:55;16.70;99.90
21944;DHT22;11136;48.778;9.126;2023-05-06T01:05:22;16.70;99.90
21944;DHT22;11136;48.778;9.126;2023-05-06T01:08:33;16.60;99.90
21944;DHT22;11136;48.778;9.126;2023-05-06T01:11:07;16.60;99.90
21944;DHT22;11136;48.778;9.126;2023-05-06T01:13:55;16.60;99.90
21944;DHT22;11136;48.778;9.126;2023-05-06T01:16:24;16.50;99.90
21944;DHT22;11136;48.778;9.126;2023-05-06T01:18:53;16.50;99.90
21944;DHT22;11136;48.778;9.126;2023-05-06T01:21:20;16.50;99.90
21944;DHT22;11136;48.778;9.126;2023-05-06T01:23:54;16.40;99.90
21944;DHT22;11136;48.778;9.126;2023-05-06T01:26:22;16.50;99.90
21944;DHT22;11136;48.778;9.126;2023-05-06T01:28:48;16.50;99.90
21944;DHT22;11136;48.778;9.126;2023-05-06T01:31:24;16.40;99.90
21944;DHT22;11136;48.778;9.126;2023-05-06T01:34:24;16.40;99.90
21944;DHT22;11136;48.778;9.126;2023-05-06T01:39:37;16.40;99.90
21944;DHT22;11136;48.778;9.126;2023-05-06T01:42:05;16.40;99.90
21944;DHT22;11136;48.778;9.126;2023-05-06T01:44:32;16.50;99.90
21944;DHT22;11136;48.778;9.126;2023-05-06T01:46:59;16.50;99.90
21944;DHT22;11136;48.778;9.126;2023-05-06T01:49:26;16.50;99.90
21944;DHT22;11136;48.778;9.126;2023-05-06T01:51:52;16.50;99.90
21944;DHT22;11136;48.778;9.126;2023-05-06T01:54:18;16.60;99.90
21944;DHT22;11136;48.778;9.126;2023-05-06T01:56:44;16.60;99.90
21944;DHT22;11136;48.778;9.126;2023-05-06T01:59:09;16.60;99.90
21944;DHT22;11136;48.778;9.126;2023-05-06T02:01:35;16.60;99.90
21944;DHT22;11136;48.778;9.126;2023-05-06T02:04:01;16.60;99.90
21944;DHT22;11136;48.778;9.126;2023-05-06T02:06:26;16.60;99.90
21944;DHT22;11136;48.778;9.126;2023-05-06T02:08:52;16.60;99.90
21944;DHT22;11136;48.778;9.126;2023-05-06T02:11:18;16.60;99.90
21944;DHT22;11136;48.778;9.126;2023-05-06T02:13:43;16.60;99.90
21944;DHT22;11136;48.778;9.126;2023-05-06T02:16:09;16.50;99.90
21944;DHT22;11136;48.778;9.126;2023-05-06T02:18:35;16.50;99.90
21944;DHT22;11136;48.778;9.126;2023-05-06T02:21:01;16.50;99.90
21944;DHT22;11136;48.778;9.126;2023-05-06T02:23:28;16.50;99.90
21944;DHT22;11136;48.778;9.126;2023-05-06T02:25:53;16.50;99.90
21944;DHT22;11136;48.778;9.126;2023-05-06T02:28:19;16.50;99.90
21944;DHT22;11136;48.778;9.126;2023-05-06T02:30:44;16.50;99.90
21944;DHT22;11136;48.778;9.126;2023-05-06T02:33:10;16.50;99.90
21944;DHT22;11136;48.778;9.126;2023-05-06T02:35:36;16.50;99.90
21944;DHT22;11136;48.778;9.126;2023-05-06T02:38:01;16.50;99.90
21944;DHT22;11136;48.778;9.126;2023-05-06T02:40:27;16.50;99.90
21944;DHT22;11136;48.778;9.126;2023-05-06T02:42:52;16.50;99.90
21944;DHT22;11136;48.778;9.126;2023-05-06T02:45:18;16.50;99.90
21944;DHT22;11136;48.778;9.126;2023-05-06T02:47:43;16.50;99.90
21944;DHT22;11136;48.778;9.126;2023-05-06T02:50:09;16.50;99.90
21944;DHT22;11136;48.778;9.126;2023-05-06T02:52:35;16.50;99.90
21944;DHT22;11136;48.778;9.126;2023-05-06T02:55:01;16.50;99.90
21944;DHT22;11136;48.778;9.126;2023-05-06T02:57:27;16.50;99.90
21944;DHT22;11136;48.778;9.126;2023-05-06T02:59:52;16.50;99.90
21944;DHT22;11136;48.778;9.126;2023-05-06T03:02:18;16.40;99.90
21944;DHT22;11136;48.778;9.126;2023-05-06T03:04:44;16.50;99.90
21944;DHT22;11136;48.778;9.126;2023-05-06T03:07:09;16.40;99.90
21944;DHT22;11136;48.778;9.126;2023-05-06T03:09:35;16.50;99.90
21944;DHT22;11136;48.778;9.126;2023-05-06T03:12:01;16.50;99.90
21944;DHT22;11136;48.778;9.126;2023-05-06T03:14:27;16.40;99.90
21944;DHT22;11136;48.778;9.126;2023-05-06T03:16:52;16.40;99.90
21944;DHT22;11136;48.778;9.126;2023-05-06T03:19:18;16.40;99.90
21944;DHT22;11136;48.778;9.126;2023-05-06T03:21:43;16.40;99.90
21944;DHT22;11136;48.778;9.126;2023-05-06T03:24:09;16.40;99.90
21944;DHT22;11136;48.778;9.126;2023-05-06T03:26:35;16.30;99.90
21944;DHT22;11136;48.778;9.126;2023-05-06T03:29:01;16.30;99.90
21944;DHT22;11136;48.778;9.126;2023-05-06T03:31:27;16.30;99.90
21944;DHT22;11136;48.778;9.126;2023-05-06T03:33:52;16.30;99.90
21944;DHT22;11136;48.778;9.126;2023-05-06T03:36:18;16.30;99.90
21944;DHT22;11136;48.778;9.126;2023-05-06T03:38:43;16.30;99.90
21944;DHT22;11136;48.778;9.126;2023-05-06T03:41:09;16.30;99.90
21944;DHT22;11136;48.778;9.126;2023-05-06T03:43:35;16.30;99.90
21944;DHT22;11136;48.778;9.126;2023-05-06T03:46:01;16.30;99.90
21944;DHT22;11136;48.778;9.126;2023-05-06T03:48:27;16.30;99.90
21944;DHT22;11136;48.778;9.126;2023-05-06T03:50:53;16.30;99.90
21944;DHT22;11136;48.778;9.126;2023-05-06T03:53:18;16.30;99.90
21944;DHT22;11136;48.778;9.126;2023-05-06T03:55:44;16.20;99.90
21944;DHT22;11136;48.778;9.126;2023-05-06T03:58:11;16.20;99.90
21944;DHT22;11136;48.778;9.126;2023-05-06T04:00:36;16.20;99.90
21944;DHT22;11136;48.778;9.126;2023-05-06T04:03:02;16.20;99.90
21944;DHT22;11136;48.778;9.126;2023-05-06T04:05:27;16.10;99.90
21944;DHT22;11136;48.778;9.126;2023-05-06T04:07:53;16.10;99.90
21944;DHT22;11136;48.778;9.126;2023-05-06T04:10:20;16.10;99.90
21944;DHT22;11136;48.778;9.126;2023-05-06T04:12:46;16.10;99.90
21944;DHT22;11136;48.778;9.126;2023-05-06T04:15:12;16.00;99.90
21944;DHT22;11136;48.778;9.126;2023-05-06T04:17:37;16.00;99.90
21944;DHT22;11136;48.778;9.126;2023-05-06T04:20:03;16.00;99.90
21944;DHT22;11136;48.778;9.126;2023-05-06T04:22:31;16.00;99.90
21944;DHT22;11136;48.778;9.126;2023-05-06T04:24:56;15.90;99.90
21944;DHT22;11136;48.778;9.126;2023-05-06T04:27:24;15.90;99.90
21944;DHT22;11136;48.778;9.126;2023-05-06T04:29:51;15.90;99.90
21944;DHT22;11136;48.778;9.126;2023-05-06T04:32:17;15.90;99.90
21944;DHT22;11136;48.778;9.126;2023-05-06T04:34:43;15.80;99.90
21944;DHT22;11136;48.778;9.126;2023-05-06T04:37:09;15.80;99.90
21944;DHT22;11136;48.778;9.126;2023-05-06T04:39:34;15.80;99.90
21944;DHT22;11136;48.778;9.126;2023-05-06T04:42:01;15.80;99.90
21944;DHT22;11136;48.778;9.126;2023-05-06T04:44:27;15.80;99.90
21944;DHT22;11136;48.778;9.126;2023-05-06T04:46:53;15.70;99.90
21944;DHT22;11136;48.778;9.126;2023-05-06T04:49:19;15.70;99.90
21944;DHT22;11136;48.778;9.126;2023-05-06T04:51:45;15.70;99.90
21944;DHT22;11136;48.778;9.126;2023-05-06T04:54:10;15.70;99.90
21944;DHT22;11136;48.778;9.126;2023-05-06T04:56:36;15.70;99.90
21944;DHT22;11136;48.778;9.126;2023-05-06T04:59:03;15.70;99.90
21944;DHT22;11136;48.778;9.126;2023-05-06T05:01:28;15.70;99.90
21944;DHT22;11136;48.778;9.126;2023-05-06T05:03:54;15.70;99.90
21944;DHT22;11136;48.778;9.126;2023-05-06T05:06:19;15.70;99.90
21944;DHT22;11136;48.778;9.126;2023-05-06T05:08:45;15.70;99.90
21944;DHT22;11136;48.778;9.126;2023-05-06T05:11:11;15.80;99.90
21944;DHT22;11136;48.778;9.126;2023-05-06T05:13:36;15.70;99.90
21944;DHT22;11136;48.778;9.126;2023-05-06T05:16:02;15.70;99.90
21944;DHT22;11136;48.778;9.126;2023-05-06T05:18:28;15.70;99.90
21944;DHT22;11136;48.778;9.126;2023-05-06T05:20:53;15.70;99.90
21944;DHT22;11136;48.778;9.126;2023-05-06T05:23:19;15.70;99.90
21944;DHT22;11136;48.778;9.126;2023-05-06T05:25:44;15.70;99.90
21944;DHT22;11136;48.778;9.126;2023-05-06T05:28:10;15.70;99.90
21944;DHT22;11136;48.778;9.126;2023-05-06T05:30:36;15.80;99.90
21944;DHT22;11136;48.778;9.126;2023-05-06T05:33:01;15.80;99.90
21944;DHT22;11136;48.778;9.126;2023-05-06T05:35:27;15.80;99.90
21944;DHT22;11136;48.778;9.126;2023-05-06T05:37:53;15.90;99.90
21944;DHT22;11136;48.778;9.126;2023-05-06T05:40:18;15.90;99.90
21944;DHT22;11136;48.778;9.126;2023-05-06T05:42:44;15.90;99.90
21944;DHT22;11136;48.778;9.126;2023-05-06T05:45:10;15.90;99.90
21944;DHT22;11136;48.778;9.126;2023-05-06T05:47:36;16.00;99.90
21944;DHT22;11136;48.778;9.126;2023-05-06T05:50:01;16.00;99.90
21944;DHT22;11136;48.778;9.126;2023-05-06T05:52:27;16.00;99.90
21944;DHT22;11136;48.778;9.126;2023-05-06T05:54:52;16.10;99.90
21944;DHT22;11136;48.778;9.126;2023-05-06T05:57:18;16.10;99.90
21944;DHT22;11136;48.778;9.126;2023-05-06T05:59:43;16.10;99.90
21944;DHT22;11136;48.778;9.126;2023-05-06T06:02:09;16.10;99.90
21944;DHT22;11136;48.778;9.126;2023-05-06T06:04:35;16.10;99.90
21944;DHT22;11136;48.778;9.126;2023-05-06T06:07:00;16.20;99.90
21944;DHT22;11136;48.778;9.126;2023-05-06T06:09:26;16.20;99.90
21944;DHT22;11136;48.778;9.126;2023-05-06T06:11:52;16.20;99.90
21944;DHT22;11136;48.778;9.126;2023-05-06T06:14:17;16.20;99.90
21944;DHT22;11136;48.778;9.126;2023-05-06T06:16:43;16.30;99.90
21944;DHT22;11136;48.778;9.126;2023-05-06T06:19:08;16.30;99.90
21944;DHT22;11136;48.778;9.126;2023-05-06T06:21:34;16.40;99.90
21944;DHT22;11136;48.778;9.126;2023-05-06T06:24:00;16.40;99.90
21944;DHT22;11136;48.778;9.126;2023-05-06T06:26:26;16.50;99.90
21944;DHT22;11136;48.778;9.126;2023-05-06T06:28:51;16.50;99.90
21944;DHT22;11136;48.778;9.126;2023-05-06T06:31:17;16.50;99.90
21944;DHT22;11136;48.778;9.126;2023-05-06T06:33:43;16.60;99.90
21944;DHT22;11136;48.778;9.126;2023-05-06T06:36:09;16.60;99.90
21944;DHT22;11136;48.778;9.126;2023-05-06T06:38:34;16.70;99.90
21944;DHT22;11136;48.778;9.126;2023-05-06T06:41:00;16.70;99.90
21944;DHT22;11136;48.778;9.126;2023-05-06T06:43:27;16.80;99.90
21944;DHT22;11136;48.778;9.126;2023-05-06T06:45:52;16.80;99.90
21944;DHT22;11136;48.778;9.126;2023-05-06T06:48:18;16.80;99.90
21944;DHT22;11136;48.778;9.126;2023-05-06T06:50:44;16.90;99.90
21944;DHT22;11136;48.778;9.126;2023-05-06T06:53:10;17.00;99.90
21944;DHT22;11136;48.778;9.126;2023-05-06T06:55:35;17.00;99.90
21944;DHT22;11136;48.778;9.126;2023-05-06T06:58:01;17.10;99.90
21944;DHT22;11136;48.778;9.126;2023-05-06T07:00:27;17.10;99.90
21944;DHT22;11136;48.778;9.126;2023-05-06T07:02:52;17.20;99.90
21944;DHT22;11136;48.778;9.126;2023-05-06T07:05:19;17.30;99.90
21944;DHT22;11136;48.778;9.126;2023-05-06T07:07:44;17.40;99.90
21944;DHT22;11136;48.778;9.126;2023-05-06T07:10:10;17.40;99.90
21944;DHT22;11136;48.778;9.126;2023-05-06T07:12:36;17.50;99.90
21944;DHT22;11136;48.778;9.126;2023-05-06T07:15:01;17.50;99.90
21944;DHT22;11136;48.778;9.126;2023-05-06T07:17:34;17.60;99.90
21944;DHT22;11136;48.778;9.126;2023-05-06T07:19:59;17.60;99.90
21944;DHT22;11136;48.778;9.126;2023-05-06T07:22:26;17.60;99.90
21944;DHT22;11136;48.778;9.126;2023-05-06T07:24:51;17.70;99.90
21944;DHT22;11136;48.778;9.126;2023-05-06T07:27:17;17.70;99.90
21944;DHT22;11136;48.778;9.126;2023-05-06T07:29:43;17.70;99.90
21944;DHT22;11136;48.778;9.126;2023-05-06T07:32:08;17.70;99.90
21944;DHT22;11136;48.778;9.126;2023-05-06T07:34:34;17.80;99.90
21944;DHT22;11136;48.778;9.126;2023-05-06T07:37:00;17.80;99.90
21944;DHT22;11136;48.778;9.126;2023-05-06T07:39:26;17.90;99.90
21944;DHT22;11136;48.778;9.126;2023-05-06T07:41:52;17.90;99.90
21944;DHT22;11136;48.778;9.126;2023-05-06T07:44:17;17.90;99.90
21944;DHT22;11136;48.778;9.126;2023-05-06T07:46:43;17.90;99.90
21944;DHT22;11136;48.778;9.126;2023-05-06T07:49:09;18.00;99.90
21944;DHT22;11136;48.778;9.126;2023-05-06T07:51:34;17.90;99.90
21944;DHT22;11136;48.778;9.126;2023-05-06T07:54:00;18.00;99.90
21944;DHT22;11136;48.778;9.126;2023-05-06T07:56:26;18.10;99.90
21944;DHT22;11136;48.778;9.126;2023-05-06T07:58:51;18.30;99.90
21944;DHT22;11136;48.778;9.126;2023-05-06T08:01:17;18.40;99.90
21944;DHT22;11136;48.778;9.126;2023-05-06T08:03:42;18.50;99.90
21944;DHT22;11136;48.778;9.126;2023-05-06T08:06:08;18.60;99.90
21944;DHT22;11136;48.778;9.126;2023-05-06T08:08:34;18.60;99.90
21944;DHT22;11136;48.778;9.126;2023-05-06T08:10:59;18.60;99.90
21944;DHT22;11136;48.778;9.126;2023-05-06T08:13:25;18.70;99.90
21944;DHT22;11136;48.778;9.126;2023-05-06T08:15:52;18.70;99.90
21944;DHT22;11136;48.778;9.126;2023-05-06T08:18:18;18.80;99.90
21944;DHT22;11136;48.778;9.126;2023-05-06T08:20:43;18.90;99.90
21944;DHT22;11136;48.778;9.126;2023-05-06T08:23:09;19.20;99.90
21944;DHT22;11136;48.778;9.126;2023-05-06T08:25:35;19.50;99.90
21944;DHT22;11136;48.778;9.126;2023-05-06T08:28:00;19.90;99.90
21944;DHT22;11136;48.778;9.126;2023-05-06T08:30:26;20.40;99.90
21944;DHT22;11136;48.778;9.126;2023-05-06T08:32:52;20.70;99.90
21944;DHT22;11136;48.778;9.126;2023-05-06T08:35:18;20.80;99.90
21944;DHT22;11136;48.778;9.126;2023-05-06T08:37:44;20.80;99.80
21944;DHT22;11136;48.778;9.126;2023-05-06T08:40:17;20.90;99.00
21944;DHT22;11136;48.778;9.126;2023-05-06T08:42:47;20.80;98.20
21944;DHT22;11136;48.778;9.126;2023-05-06T08:45:16;20.80;98.00
21944;DHT22;11136;48.778;9.126;2023-05-06T08:47:42;20.80;97.90
21944;DHT22;11136;48.778;9.126;2023-05-06T08:50:09;20.70;97.70
21944;DHT22;11136;48.778;9.126;2023-05-06T08:52:37;20.70;97.70
21944;DHT22;11136;48.778;9.126;2023-05-06T08:55:03;20.60;97.80
21944;DHT22;11136;48.778;9.126;2023-05-06T08:57:30;20.50;97.90
21944;DHT22;11136;48.778;9.126;2023-05-06T08:59:57;20.40;97.80
21944;DHT22;11136;48.778;9.126;2023-05-06T09:02:23;20.30;97.70
21944;DHT22;11136;48.778;9.126;2023-05-06T09:04:50;20.20;97.40
21944;DHT22;11136;48.778;9.126;2023-05-06T09:07:18;20.10;97.30
21944;DHT22;11136;48.778;9.126;2023-05-06T09:09:45;20.20;97.50
21944;DHT22;11136;48.778;9.126;2023-05-06T09:12:10;20.30;97.10
21944;DHT22;11136;48.778;9.126;2023-05-06T09:14:38;20.40;96.90
21944;DHT22;11136;48.778;9.126;2023-05-06T09:17:04;20.60;96.80
21944;DHT22;11136;48.778;9.126;2023-05-06T09:19:30;20.70;96.80
21944;DHT22;11136;48.778;9.126;2023-05-06T09:21:55;20.90;96.50
21944;DHT22;11136;48.778;9.126;2023-05-06T09:24:22;21.10;96.40
21944;DHT22;11136;48.778;9.126;2023-05-06T09:26:50;21.30;95.90
21944;DHT22;11136;48.778;9.126;2023-05-06T09:29:19;21.60;95.20
21944;DHT22;11136;48.778;9.126;2023-05-06T09:31:46;21.70;95.60
21944;DHT22;11136;48.778;9.126;2023-05-06T09:34:13;22.00;95.40
21944;DHT22;11136;48.778;9.126;2023-05-06T09:36:40;22.40;95.20
21944;DHT22;11136;48.778;9.126;2023-05-06T09:39:06;22.70;94.70
21944;DHT22;11136;48.778;9.126;2023-05-06T09:41:32;23.00;94.30
21944;DHT22;11136;48.778;9.126;2023-05-06T09:43:58;23.20;93.20
21944;DHT22;11136;48.778;9.126;2023-05-06T09:46:25;23.20;92.60
21944;DHT22;11136;48.778;9.126;2023-05-06T09:48:54;23.30;92.80
21944;DHT22;11136;48.778;9.126;2023-05-06T09:51:20;23.30;91.90
21944;DHT22;11136;48.778;9.126;2023-05-06T09:53:46;23.20;91.80
21944;DHT22;11136;48.778;9.126;2023-05-06T09:56:13;23.10;91.20
21944;DHT22;11136;48.778;9.126;2023-05-06T09:58:40;22.90;91.30
21944;DHT22;11136;48.778;9.126;2023-05-06T10:01:07;22.90;90.80
21944;DHT22;11136;48.778;9.126;2023-05-06T10:03:34;22.60;89.80
21944;DHT22;11136;48.778;9.126;2023-05-06T10:06:02;22.40;88.40
21944;DHT22;11136;48.778;9.126;2023-05-06T10:08:32;22.20;88.80
21944;DHT22;11136;48.778;9.126;2023-05-06T10:10:59;22.10;89.80
21944;DHT22;11136;48.778;9.126;2023-05-06T10:13:26;21.80;89.70
21944;DHT22;11136;48.778;9.126;2023-05-06T10:15:53;21.70;89.70
21944;DHT22;11136;48.778;9.126;2023-05-06T10:18:20;21.60;90.10
21944;DHT22;11136;48.778;9.126;2023-05-06T10:20:48;21.50;90.30
21944;DHT22;11136;48.778;9.126;2023-05-06T10:23:42;21.50;90.70
21944;DHT22;11136;48.778;9.126;2023-05-06T10:26:15;21.60;91.10
21944;DHT22;11136;48.778;9.126;2023-05-06T10:28:42;21.60;90.80
21944;DHT22;11136;48.778;9.126;2023-05-06T10:31:12;21.70;91.10
21944;DHT22;11136;48.778;9.126;2023-05-06T10:33:39;21.90;91.30
21944;DHT22;11136;48.778;9.126;2023-05-06T10:36:21;21.90;91.30
21944;DHT22;11136;48.778;9.126;2023-05-06T10:38:52;22.20;91.30
21944;DHT22;11136;48.778;9.126;2023-05-06T10:41:23;22.30;90.80
21944;DHT22;11136;48.778;9.126;2023-05-06T10:43:54;22.40;90.50
21944;DHT22;11136;48.778;9.126;2023-05-06T10:46:27;22.50;89.60
21944;DHT22;11136;48.778;9.126;2023-05-06T11:08:24;23.10;85.20
21944;DHT22;11136;48.778;9.126;2023-05-06T11:10:51;23.10;85.60
21944;DHT22;11136;48.778;9.126;2023-05-06T11:13:24;23.10;85.30
21944;DHT22;11136;48.778;9.126;2023-05-06T11:15:52;23.10;85.40
21944;DHT22;11136;48.778;9.126;2023-05-06T11:26:14;23.60;85.00
21944;DHT22;11136;48.778;9.126;2023-05-06T11:28:44;23.80;84.90
21944;DHT22;11136;48.778;9.126;2023-05-06T11:31:11;23.90;83.40
21944;DHT22;11136;48.778;9.126;2023-05-06T11:33:48;24.10;83.00
21944;DHT22;11136;48.778;9.126;2023-05-06T11:36:19;24.20;80.50
21944;DHT22;11136;48.778;9.126;2023-05-06T11:38:49;24.40;79.40
21944;DHT22;11136;48.778;9.126;2023-05-06T11:41:17;24.30;79.60
21944;DHT22;11136;48.778;9.126;2023-05-06T11:43:46;24.40;80.00
21944;DHT22;11136;48.778;9.126;2023-05-06T11:46:14;24.50;78.90
21944;DHT22;11136;48.778;9.126;2023-05-06T11:48:42;24.80;78.80
21944;DHT22;11136;48.778;9.126;2023-05-06T11:51:08;24.80;77.60
21944;DHT22;11136;48.778;9.126;2023-05-06T11:53:33;24.90;77.20
21944;DHT22;11136;48.778;9.126;2023-05-06T11:55:59;24.90;76.80
21944;DHT22;11136;48.778;9.126;2023-05-06T11:58:26;25.10;75.80
21944;DHT22;11136;48.778;9.126;2023-05-06T12:00:56;25.10;73.50
21944;DHT22;11136;48.778;9.126;2023-05-06T12:03:23;25.00;73.00
21944;DHT22;11136;48.778;9.126;2023-05-06T12:05:50;24.80;73.30
21944;DHT22;11136;48.778;9.126;2023-05-06T12:08:21;24.70;73.60
21944;DHT22;11136;48.778;9.126;2023-05-06T12:10:50;24.60;73.50
21944;DHT22;11136;48.778;9.126;2023-05-06T12:13:17;24.40;73.40
21944;DHT22;11136;48.778;9.126;2023-05-06T12:15:43;24.30;73.60
21944;DHT22;11136;48.778;9.126;2023-05-06T12:18:09;24.30;73.30
21944;DHT22;11136;48.778;9.126;2023-05-06T12:20:35;24.10;74.20
21944;DHT22;11136;48.778;9.126;2023-05-06T12:23:11;24.10;74.10
21944;DHT22;11136;48.778;9.126;2023-05-06T12:25:38;24.10;73.20
21944;DHT22;11136;48.778;9.126;2023-05-06T12:28:17;24.00;73.10
21944;DHT22;11136;48.778;9.126;2023-05-06T12:30:43;24.00;73.20
21944;DHT22;11136;48.778;9.126;2023-05-06T12:33:10;23.90;73.40
21944;DHT22;11136;48.778;9.126;2023-05-06T12:35:37;23.80;73.10
21944;DHT22;11136;48.778;9.126;2023-05-06T12:38:16;23.80;72.90
21944;DHT22;11136;48.778;9.126;2023-05-06T12:40:43;23.70;72.20
21944;DHT22;11136;48.778;9.126;2023-05-06T12:43:10;23.70;73.60
21944;DHT22;11136;48.778;9.126;2023-05-06T12:45:36;23.80;74.10
21944;DHT22;11136;48.778;9.126;2023-05-06T12:48:05;24.10;74.70
21944;DHT22;11136;48.778;9.126;2023-05-06T12:50:40;24.70;75.60
21944;DHT22;11136;48.778;9.126;2023-05-06T12:53:08;25.50;75.00
21944;DHT22;11136;48.778;9.126;2023-05-06T12:55:35;26.30;72.90
21944;DHT22;11136;48.778;9.126;2023-05-06T12:58:01;26.60;71.20
21944;DHT22;11136;48.778;9.126;2023-05-06T13:00:27;26.80;69.20
21944;DHT22;11136;48.778;9.126;2023-05-06T13:02:54;27.00;68.10
21944;DHT22;11136;48.778;9.126;2023-05-06T13:05:19;27.10;67.40
21944;DHT22;11136;48.778;9.126;2023-05-06T13:07:45;27.20;66.60
21944;DHT22;11136;48.778;9.126;2023-05-06T13:10:10;27.10;65.50
21944;DHT22;11136;48.778;9.126;2023-05-06T13:12:36;27.00;64.00
21944;DHT22;11136;48.778;9.126;2023-05-06T13:15:02;26.90;63.90
21944;DHT22;11136;48.778;9.126;2023-05-06T13:17:28;26.80;63.60
21944;DHT22;11136;48.778;9.126;2023-05-06T13:19:57;26.70;64.00
21944;DHT22;11136;48.778;9.126;2023-05-06T13:22:23;26.80;64.80
21944;DHT22;11136;48.778;9.126;2023-05-06T13:24:50;26.90;64.50
21944;DHT22;11136;48.778;9.126;2023-05-06T13:27:15;26.90;64.50
21944;DHT22;11136;48.778;9.126;2023-05-06T13:29:41;27.10;64.90
21944;DHT22;11136;48.778;9.126;2023-05-06T13:32:07;27.30;65.10
21944;DHT22;11136;48.778;9.126;2023-05-06T13:34:34;27.50;63.70
21944;DHT22;11136;48.778;9.126;2023-05-06T13:36:59;27.60;62.90
21944;DHT22;11136;48.778;9.126;2023-05-06T13:39:25;28.00;62.90
21944;DHT22;11136;48.778;9.126;2023-05-06T13:41:51;28.60;62.90
21944;DHT22;11136;48.778;9.126;2023-05-06T13:44:20;28.90;61.80
21944;DHT22;11136;48.778;9.126;2023-05-06T13:46:46;29.50;61.20
21944;DHT22;11136;48.778;9.126;2023-05-06T13:49:17;30.60;60.90
21944;DHT22;11136;48.778;9.126;2023-05-06T13:51:42;31.40;58.30
21944;DHT22;11136;48.778;9.126;2023-05-06T13:54:17;31.90;59.80
21944;DHT22;11136;48.778;9.126;2023-05-06T13:56:42;32.00;56.70
21944;DHT22;11136;48.778;9.126;2023-05-06T13:59:08;32.00;55.80
21944;DHT22;11136;48.778;9.126;2023-05-06T14:01:36;31.70;56.10
21944;DHT22;11136;48.778;9.126;2023-05-06T14:04:01;31.80;55.20
21944;DHT22;11136;48.778;9.126;2023-05-06T14:06:27;32.10;54.30
21944;DHT22;11136;48.778;9.126;2023-05-06T14:08:52;32.40;53.80
21944;DHT22;11136;48.778;9.126;2023-05-06T14:11:18;32.60;53.10
21944;DHT22;11136;48.778;9.126;2023-05-06T14:13:44;32.30;51.60
21944;DHT22;11136;48.778;9.126;2023-05-06T14:16:09;31.80;51.30
21944;DHT22;11136;48.778;9.126;2023-05-06T14:18:35;31.40;52.10
21944;DHT22;11136;48.778;9.126;2023-05-06T14:21:00;31.10;52.20
21944;DHT22;11136;48.778;9.126;2023-05-06T14:23:26;31.30;51.80
21944;DHT22;11136;48.778;9.126;2023-05-06T14:25:51;31.00;52.20
21944;DHT22;11136;48.778;9.126;2023-05-06T14:28:17;31.10;52.70
21944;DHT22;11136;48.778;9.126;2023-05-06T14:30:43;31.40;52.40
21944;DHT22;11136;48.778;9.126;2023-05-06T14:33:09;31.50;51.50
21944;DHT22;11136;48.778;9.126;2023-05-06T14:35:34;31.00;51.70
21944;DHT22;11136;48.778;9.126;2023-05-06T14:38:00;30.50;51.10
21944;DHT22;11136;48.778;9.126;2023-05-06T14:40:26;30.20;51.70
21944;DHT22;11136;48.778;9.126;2023-05-06T14:42:51;30.10;52.10
21944;DHT22;11136;48.778;9.126;2023-05-06T14:45:18;29.70;52.30
21944;DHT22;11136;48.778;9.126;2023-05-06T14:47:44;29.70;52.70
21944;DHT22;11136;48.778;9.126;2023-05-06T14:50:11;29.70;53.00
21944;DHT22;11136;48.778;9.126;2023-05-06T14:52:38;29.70;53.00
21944;DHT22;11136;48.778;9.126;2023-05-06T14:55:05;29.70;52.80
21944;DHT22;11136;48.778;9.126;2023-05-06T14:57:32;29.70;52.90
21944;DHT22;11136;48.778;9.126;2023-05-06T14:59:57;29.70;52.90
21944;DHT22;11136;48.778;9.126;2023-05-06T15:02:23;29.70;53.20
21944;DHT22;11136;48.778;9.126;2023-05-06T15:04:49;29.70;52.80
21944;DHT22;11136;48.778;9.126;2023-05-06T15:07:14;29.60;52.50
21944;DHT22;11136;48.778;9.126;2023-05-06T15:09:41;29.60;52.10
21944;DHT22;11136;48.778;9.126;2023-05-06T15:12:11;29.40;52.20
21944;DHT22;11136;48.778;9.126;2023-05-06T15:14:38;29.40;52.20
21944;DHT22;11136;48.778;9.126;2023-05-06T15:17:04;29.10;52.30
21944;DHT22;11136;48.778;9.126;2023-05-06T15:19:30;29.10;52.60
21944;DHT22;11136;48.778;9.126;2023-05-06T15:21:56;28.90;52.30
21944;DHT22;11136;48.778;9.126;2023-05-06T15:24:22;28.80;52.30
21944;DHT22;11136;48.778;9.126;2023-05-06T15:26:48;28.80;52.60
21944;DHT22;11136;48.778;9.126;2023-05-06T15:29:15;28.60;52.40
21944;DHT22;11136;48.778;9.126;2023-05-06T15:31:45;28.50;52.80
21944;DHT22;11136;48.778;9.126;2023-05-06T15:34:11;28.30;52.80
21944;DHT22;11136;48.778;9.126;2023-05-06T15:36:39;28.10;53.10
21944;DHT22;11136;48.778;9.126;2023-05-06T15:39:05;28.00;53.40
21944;DHT22;11136;48.778;9.126;2023-05-06T15:41:33;27.80;53.20
21944;DHT22;11136;48.778;9.126;2023-05-06T15:44:00;27.70;53.60
21944;DHT22;11136;48.778;9.126;2023-05-06T15:46:27;27.60;53.70
21944;DHT22;11136;48.778;9.126;2023-05-06T15:48:53;27.40;53.50
21944;DHT22;11136;48.778;9.126;2023-05-06T15:51:19;27.30;53.80
21944;DHT22;11136;48.778;9.126;2023-05-06T15:53:45;27.20;54.00
21944;DHT22;11136;48.778;9.126;2023-05-06T15:56:12;27.10;54.10
21944;DHT22;11136;48.778;9.126;2023-05-06T15:58:39;27.00;54.30